createdAt,value
2023-05-18T00:00:52.921Z,20.18
2023-05-18T00:01:52.903Z,20.18
2023-05-18T00:02:52.994Z,20.17
2023-05-18T00:03:53.161Z,20.18
2023-05-18T00:04:53.080Z,20.18
2023-05-18T00:05:52.907Z,20.17
2023-05-18T00:06:52.901Z,20.17
2023-05-18T00:07:52.912Z,20.18
2023-05-18T00:08:52.979Z,20.17
2023-05-18T00:09:53.149Z,20.17
2023-05-18T00:10:53.092Z,20.17
2023-05-18T00:11:53.159Z,20.17
2023-05-18T00:12:53.201Z,20.16
2023-05-18T00:13:53.269Z,20.17
2023-05-18T00:14:53.314Z,20.17
2023-05-18T00:15:53.398Z,20.16
2023-05-18T00:16:53.431Z,20.16
2023-05-18T00:17:53.590Z,20.17
2023-05-18T00:18:53.572Z,20.17
2023-05-18T00:19:53.590Z,20.16
2023-05-18T00:20:53.681Z,20.16
2023-05-18T00:21:53.709Z,20.16
2023-05-18T00:22:53.787Z,20.15
2023-05-18T00:23:53.786Z,20.16
2023-05-18T00:24:53.784Z,20.16
2023-05-18T00:25:53.773Z,20.15
2023-05-18T00:26:53.772Z,20.15
2023-05-18T00:27:53.778Z,20.15
2023-05-18T00:28:53.768Z,20.15
2023-05-18T00:29:53.806Z,20.15
2023-05-18T00:30:53.782Z,20.15
2023-05-18T00:31:53.805Z,20.15
2023-05-18T00:32:53.804Z,20.15
2023-05-18T00:33:53.802Z,20.15
2023-05-18T00:34:53.794Z,20.15
2023-05-18T00:35:53.802Z,20.15
2023-05-18T00:36:53.793Z,20.15
2023-05-18T00:37:53.801Z,20.15
2023-05-18T00:38:53.839Z,20.14
2023-05-18T00:39:53.912Z,20.15
2023-05-18T00:40:53.960Z,20.14
2023-05-18T00:41:54.016Z,20.14
2023-05-18T00:42:54.058Z,20.14
2023-05-18T00:43:54.133Z,20.14
2023-05-18T00:44:54.168Z,20.14
2023-05-18T00:45:54.239Z,20.13
2023-05-18T00:46:54.278Z,20.14
2023-05-18T00:47:54.304Z,20.13
2023-05-18T00:48:54.275Z,20.13
2023-05-18T00:49:54.286Z,20.14
2023-05-18T00:50:54.281Z,20.13
2023-05-18T00:51:54.281Z,20.14
2023-05-18T00:52:54.287Z,20.14
2023-05-18T00:53:54.318Z,20.14
2023-05-18T00:54:54.298Z,20.13
2023-05-18T00:55:54.278Z,20.13
2023-05-18T00:56:54.291Z,20.13
2023-05-18T00:57:54.292Z,20.12
2023-05-18T00:58:54.280Z,20.13
2023-05-18T00:59:54.292Z,20.12
2023-05-18T01:00:54.323Z,20.13
2023-05-18T01:01:54.290Z,20.12
2023-05-18T01:02:54.364Z,20.12
2023-05-18T01:03:54.282Z,20.12
2023-05-18T01:04:54.296Z,20.13
2023-05-18T01:05:54.287Z,20.13
2023-05-18T01:06:54.305Z,20.12
2023-05-18T01:07:54.344Z,20.13
2023-05-18T01:08:54.340Z,20.13
2023-05-18T01:09:54.376Z,20.12
2023-05-18T01:10:54.370Z,20.12
2023-05-18T01:11:54.372Z,20.12
2023-05-18T01:12:54.359Z,20.13
2023-05-18T01:13:54.365Z,20.12
2023-05-18T01:14:54.392Z,20.13
2023-05-18T01:15:54.386Z,20.12
2023-05-18T01:16:54.423Z,20.12
2023-05-18T01:17:54.438Z,20.12
2023-05-18T01:18:54.475Z,20.12
2023-05-18T01:19:54.485Z,20.12
2023-05-18T01:20:54.553Z,20.12
2023-05-18T01:21:54.604Z,20.12
2023-05-18T01:22:54.659Z,20.12
2023-05-18T01:23:54.742Z,20.12
2023-05-18T01:24:54.888Z,20.11
2023-05-18T01:25:54.843Z,20.12
2023-05-18T01:26:54.922Z,20.11
2023-05-18T01:27:54.956Z,20.11
2023-05-18T01:28:55.010Z,20.12
2023-05-18T01:29:55.081Z,20.11
2023-05-18T01:30:55.147Z,20.11
2023-05-18T01:31:55.184Z,20.10
2023-05-18T01:32:55.275Z,20.10
2023-05-18T01:33:55.308Z,20.10
2023-05-18T01:34:55.363Z,20.10
2023-05-18T01:35:55.436Z,20.10
2023-05-18T01:36:55.483Z,20.10
2023-05-18T01:37:55.557Z,20.10
2023-05-18T01:38:55.605Z,20.10
2023-05-18T01:39:55.669Z,20.10
2023-05-18T01:40:55.733Z,20.09
2023-05-18T01:41:55.782Z,20.10
2023-05-18T01:42:55.863Z,20.09
2023-05-18T01:43:55.926Z,20.10
2023-05-18T01:44:55.968Z,20.10
2023-05-18T01:45:56.131Z,20.09
2023-05-18T01:46:56.099Z,20.10
2023-05-18T01:47:56.181Z,20.10
2023-05-18T01:48:56.219Z,20.10
2023-05-18T01:49:56.285Z,20.10
2023-05-18T01:50:56.339Z,20.09
2023-05-18T01:51:56.394Z,20.09
2023-05-18T01:52:56.462Z,20.09
2023-05-18T01:53:56.527Z,20.10
2023-05-18T01:54:56.584Z,20.09
2023-05-18T01:55:56.654Z,20.09
2023-05-18T01:56:56.703Z,20.09
2023-05-18T01:57:56.709Z,20.09
2023-05-18T01:58:56.726Z,20.08
2023-05-18T01:59:56.735Z,20.09
2023-05-18T02:00:56.748Z,20.09
2023-05-18T02:01:59.462Z,20.09
2023-05-18T02:02:56.786Z,20.08
2023-05-18T02:03:56.852Z,20.08
2023-05-18T02:04:56.784Z,20.09
2023-05-18T02:05:56.778Z,20.08
2023-05-18T02:06:56.793Z,20.08
2023-05-18T02:07:56.792Z,20.09
2023-05-18T02:08:56.791Z,20.08
2023-05-18T02:09:56.799Z,20.09
2023-05-18T02:10:56.794Z,20.08
2023-05-18T02:11:56.803Z,20.08
2023-05-18T02:12:56.857Z,20.08
2023-05-18T02:13:56.930Z,20.08
2023-05-18T02:14:56.994Z,20.08
2023-05-18T02:15:57.061Z,20.09
2023-05-18T02:16:57.110Z,20.08
2023-05-18T02:17:57.206Z,20.08
2023-05-18T02:18:57.774Z,20.08
2023-05-18T02:19:57.298Z,20.08
2023-05-18T02:20:57.379Z,20.08
2023-05-18T02:21:57.581Z,20.08
2023-05-18T02:22:57.614Z,20.08
2023-05-18T02:23:57.600Z,20.08
2023-05-18T02:24:57.606Z,20.07
2023-05-18T02:25:57.669Z,20.08
2023-05-18T02:26:57.749Z,20.08
2023-05-18T02:27:57.807Z,20.08
2023-05-18T02:28:57.870Z,20.08
2023-05-18T02:29:57.957Z,20.08
2023-05-18T02:30:57.984Z,20.08
2023-05-18T02:31:58.097Z,20.08
2023-05-18T02:32:58.143Z,20.08
2023-05-18T02:33:58.114Z,20.06
2023-05-18T02:34:58.125Z,20.07
2023-05-18T02:35:58.124Z,20.07
2023-05-18T02:36:58.233Z,20.07
2023-05-18T02:37:58.150Z,20.07
2023-05-18T02:38:58.168Z,20.06
2023-05-18T02:39:58.155Z,20.06
2023-05-18T02:40:58.157Z,20.07
2023-05-18T02:41:58.168Z,20.07
2023-05-18T02:42:58.172Z,20.06
2023-05-18T02:43:58.198Z,20.06
2023-05-18T02:44:58.388Z,20.06
2023-05-18T02:45:58.369Z,20.05
2023-05-18T02:46:58.392Z,20.05
2023-05-18T02:47:58.515Z,20.06
2023-05-18T02:48:58.522Z,20.05
2023-05-18T02:49:58.583Z,20.06
2023-05-18T02:50:58.670Z,20.05
2023-05-18T02:51:58.703Z,20.05
2023-05-18T02:52:58.779Z,20.06
2023-05-18T02:53:58.827Z,20.05
2023-05-18T02:54:58.901Z,20.05
2023-05-18T02:55:58.946Z,20.06
2023-05-18T02:56:59.012Z,20.05
2023-05-18T02:57:59.077Z,20.05
2023-05-18T02:58:59.147Z,20.05
2023-05-18T02:59:59.219Z,20.05
2023-05-18T03:00:59.331Z,20.04
2023-05-18T03:01:59.430Z,20.05
2023-05-18T03:02:59.538Z,20.04
2023-05-18T03:03:59.510Z,20.04
2023-05-18T03:04:59.456Z,20.04
2023-05-18T03:05:59.535Z,20.04
2023-05-18T03:06:59.463Z,20.03
2023-05-18T03:07:59.469Z,20.04
2023-05-18T03:08:59.495Z,20.04
2023-05-18T03:09:59.499Z,20.04
2023-05-18T03:10:59.503Z,20.03
2023-05-18T03:11:59.506Z,20.03
2023-05-18T03:12:59.575Z,20.03
2023-05-18T03:13:59.638Z,20.03
2023-05-18T03:14:59.747Z,20.03
2023-05-18T03:15:59.767Z,20.03
2023-05-18T03:16:59.882Z,20.03
2023-05-18T03:17:59.959Z,20.03
2023-05-18T03:18:59.999Z,20.03
2023-05-18T03:20:00.045Z,20.03
2023-05-18T03:21:00.146Z,20.03
2023-05-18T03:22:00.216Z,20.03
2023-05-18T03:23:00.258Z,20.03
2023-05-18T03:24:00.328Z,20.03
2023-05-18T03:25:00.396Z,20.03
2023-05-18T03:26:00.482Z,20.04
2023-05-18T03:27:00.535Z,20.03
2023-05-18T03:28:00.613Z,20.03
2023-05-18T03:29:00.690Z,20.03
2023-05-18T03:30:00.762Z,20.03
2023-05-18T03:31:00.837Z,20.02
2023-05-18T03:32:00.893Z,20.03
2023-05-18T03:33:01.015Z,20.02
2023-05-18T03:34:01.029Z,20.03
2023-05-18T03:35:01.211Z,20.03
2023-05-18T03:36:01.164Z,20.02
2023-05-18T03:37:01.236Z,20.03
2023-05-18T03:38:01.328Z,20.02
2023-05-18T03:39:01.372Z,20.03
2023-05-18T03:40:01.451Z,20.02
2023-05-18T03:41:01.516Z,20.02
2023-05-18T03:42:01.636Z,20.02
2023-05-18T03:43:01.652Z,20.01
2023-05-18T03:44:01.709Z,20.01
2023-05-18T03:45:01.774Z,20.02
2023-05-18T03:46:01.966Z,20.01
2023-05-18T03:47:01.909Z,20.01
2023-05-18T03:48:02.018Z,20.01
2023-05-18T03:49:02.057Z,20.02
2023-05-18T03:50:02.140Z,20.01
2023-05-18T03:51:02.202Z,20.01
2023-05-18T03:52:02.254Z,20.01
2023-05-18T03:53:02.332Z,20.01
2023-05-18T03:54:02.395Z,20.01
2023-05-18T03:55:02.476Z,20.01
2023-05-18T03:56:02.532Z,20.00
2023-05-18T03:57:02.645Z,20.01
2023-05-18T03:58:02.665Z,20.00
2023-05-18T03:59:02.754Z,20.00
2023-05-18T04:00:02.804Z,20.01
2023-05-18T04:01:02.894Z,20.00
2023-05-18T04:02:02.967Z,20.01
2023-05-18T04:03:03.093Z,20.01
2023-05-18T04:04:03.117Z,20.01
2023-05-18T04:05:03.166Z,20.01
2023-05-18T04:06:03.249Z,20.01
2023-05-18T04:07:03.305Z,20.01
2023-05-18T04:08:03.376Z,20.01
2023-05-18T04:09:03.450Z,20.01
2023-05-18T04:10:03.525Z,20.01
2023-05-18T04:11:03.561Z,20.01
2023-05-18T04:12:03.629Z,20.01
2023-05-18T04:13:03.703Z,20.01
2023-05-18T04:14:03.762Z,20.01
2023-05-18T04:15:03.834Z,20.00
2023-05-18T04:16:03.995Z,20.01
2023-05-18T04:17:03.968Z,20.01
2023-05-18T04:18:04.079Z,20.00
2023-05-18T04:19:06.363Z,20.00
2023-05-18T04:20:04.122Z,20.00
2023-05-18T04:21:04.119Z,20.00
2023-05-18T04:22:04.115Z,20.01
2023-05-18T04:23:04.124Z,20.00
2023-05-18T04:24:04.125Z,20.01
2023-05-18T04:25:04.126Z,20.00
2023-05-18T04:26:04.127Z,20.01
2023-05-18T04:27:04.130Z,20.00
2023-05-18T04:28:04.146Z,20.01
2023-05-18T04:29:04.139Z,20.01
2023-05-18T04:30:04.139Z,20.01
2023-05-18T04:31:04.144Z,20.01
2023-05-18T04:32:04.168Z,20.01
2023-05-18T04:33:04.240Z,20.02
2023-05-18T04:34:04.210Z,20.02
2023-05-18T04:35:04.275Z,20.02
2023-05-18T04:36:04.356Z,20.01
2023-05-18T04:37:04.495Z,20.02
2023-05-18T04:38:04.481Z,20.02
2023-05-18T04:39:04.546Z,20.01
2023-05-18T04:40:04.618Z,20.01
2023-05-18T04:41:04.687Z,20.01
2023-05-18T04:42:04.760Z,20.01
2023-05-18T04:43:04.836Z,20.01
2023-05-18T04:44:04.874Z,20.02
2023-05-18T04:45:04.951Z,20.01
2023-05-18T04:46:05.031Z,20.02
2023-05-18T04:47:05.104Z,20.02
2023-05-18T04:48:05.232Z,20.02
2023-05-18T04:49:05.246Z,20.02
2023-05-18T04:50:05.317Z,20.02
2023-05-18T04:51:05.389Z,20.02
2023-05-18T04:52:05.452Z,20.03
2023-05-18T04:53:05.538Z,20.02
2023-05-18T04:54:05.606Z,20.03
2023-05-18T04:55:05.705Z,20.02
2023-05-18T04:56:05.781Z,20.03
2023-05-18T04:57:05.836Z,20.03
2023-05-18T04:58:05.912Z,20.03
2023-05-18T04:59:05.984Z,20.03
2023-05-18T05:00:06.076Z,20.03
2023-05-18T05:01:06.160Z,20.03
2023-05-18T05:02:06.198Z,20.03
2023-05-18T05:03:06.361Z,20.03
2023-05-18T05:04:06.358Z,20.03
2023-05-18T05:05:06.430Z,20.03
2023-05-18T05:06:06.499Z,20.03
2023-05-18T05:07:06.559Z,20.04
2023-05-18T05:08:06.623Z,20.04
2023-05-18T05:09:06.687Z,20.04
2023-05-18T05:10:06.741Z,20.04
2023-05-18T05:11:06.791Z,20.04
2023-05-18T05:12:06.856Z,20.04
2023-05-18T05:13:06.923Z,20.05
2023-05-18T05:14:06.975Z,20.04
2023-05-18T05:15:07.037Z,20.05
2023-05-18T05:16:07.113Z,20.05
2023-05-18T05:17:07.169Z,20.06
2023-05-18T05:18:07.241Z,20.06
2023-05-18T05:19:07.299Z,20.05
2023-05-18T05:20:07.352Z,20.07
2023-05-18T05:21:07.422Z,20.06
2023-05-18T05:22:07.457Z,20.07
2023-05-18T05:23:07.557Z,20.05
2023-05-18T05:24:07.586Z,20.07
2023-05-18T05:25:07.664Z,20.07
2023-05-18T05:26:07.743Z,20.06
2023-05-18T05:27:07.787Z,20.06
2023-05-18T05:28:07.836Z,20.06
2023-05-18T05:29:07.910Z,20.06
2023-05-18T05:30:07.981Z,20.07
2023-05-18T05:31:08.056Z,20.07
2023-05-18T05:32:08.087Z,20.08
2023-05-18T05:33:08.216Z,20.08
2023-05-18T05:34:08.227Z,20.08
2023-05-18T05:35:08.287Z,20.09
2023-05-18T05:36:08.337Z,20.09
2023-05-18T05:37:08.397Z,20.10
2023-05-18T05:38:08.467Z,20.09
2023-05-18T05:39:08.533Z,20.10
2023-05-18T05:40:08.601Z,20.10
2023-05-18T05:41:08.680Z,20.11
2023-05-18T05:42:08.769Z,20.11
2023-05-18T05:43:08.811Z,20.11
2023-05-18T05:44:08.891Z,20.11
2023-05-18T05:45:08.947Z,20.11
2023-05-18T05:46:09.004Z,20.11
2023-05-18T05:47:09.091Z,20.11
2023-05-18T05:48:10.472Z,20.12
2023-05-18T05:49:09.409Z,20.12
2023-05-18T05:50:09.479Z,20.11
2023-05-18T05:51:09.511Z,20.12
2023-05-18T05:52:09.584Z,20.12
2023-05-18T05:53:09.695Z,20.12
2023-05-18T05:54:10.847Z,20.13
2023-05-18T05:55:09.807Z,20.13
2023-05-18T05:56:09.828Z,20.13
2023-05-18T05:57:09.906Z,20.14
2023-05-18T05:58:09.967Z,20.14
2023-05-18T05:59:10.033Z,20.14
2023-05-18T06:00:10.075Z,20.14
2023-05-18T06:01:10.165Z,20.15
2023-05-18T06:02:10.305Z,20.15
2023-05-18T06:03:10.334Z,20.16
2023-05-18T06:04:10.371Z,20.16
2023-05-18T06:05:10.425Z,20.16
2023-05-18T06:06:10.489Z,20.16
2023-05-18T06:07:10.523Z,20.17
2023-05-18T06:08:10.598Z,20.17
2023-05-18T06:09:10.640Z,20.17
2023-05-18T06:10:10.712Z,20.18
2023-05-18T06:11:11.576Z,20.19
2023-05-18T06:12:10.876Z,20.19
2023-05-18T06:13:10.879Z,20.20
2023-05-18T06:14:10.911Z,20.19
2023-05-18T06:15:11.036Z,20.20
2023-05-18T06:16:11.082Z,20.21
2023-05-18T06:17:11.106Z,20.21
2023-05-18T06:18:13.374Z,20.21
2023-05-18T06:19:11.256Z,20.22
2023-05-18T06:20:11.374Z,20.22
2023-05-18T06:21:11.297Z,20.22
2023-05-18T06:22:11.338Z,20.23
2023-05-18T06:23:11.430Z,20.24
2023-05-18T06:24:11.444Z,20.24
2023-05-18T06:25:11.501Z,20.25
2023-05-18T06:26:11.529Z,20.25
2023-05-18T06:27:11.604Z,20.25
2023-05-18T06:28:11.630Z,20.26
2023-05-18T06:29:11.690Z,20.26
2023-05-18T06:30:11.747Z,20.26
2023-05-18T06:31:11.790Z,20.27
2023-05-18T06:32:11.835Z,20.28
2023-05-18T06:33:11.912Z,20.28
2023-05-18T06:34:11.906Z,20.29
2023-05-18T06:35:12.376Z,20.29
2023-05-18T06:36:12.040Z,20.29
2023-05-18T06:37:12.051Z,20.31
2023-05-18T06:38:12.110Z,20.31
2023-05-18T06:39:12.149Z,20.31
2023-05-18T06:40:12.206Z,20.31
2023-05-18T06:41:12.247Z,20.31
2023-05-18T06:42:12.284Z,20.31
2023-05-18T06:43:12.373Z,20.31
2023-05-18T06:44:12.373Z,20.32
2023-05-18T06:45:12.469Z,20.31
2023-05-18T06:46:12.590Z,20.32
2023-05-18T06:47:12.503Z,20.33
2023-05-18T06:48:12.544Z,20.32
2023-05-18T06:49:12.588Z,20.33
2023-05-18T06:50:12.645Z,20.33
2023-05-18T06:51:12.683Z,20.34
2023-05-18T06:52:12.776Z,20.33
2023-05-18T06:53:12.765Z,20.34
2023-05-18T06:54:12.832Z,20.35
2023-05-18T06:55:12.926Z,20.35
2023-05-18T06:56:12.896Z,20.36
2023-05-18T06:57:12.957Z,20.36
2023-05-18T06:58:13.075Z,20.36
2023-05-18T06:59:13.053Z,20.37
2023-05-18T07:00:13.032Z,20.37
2023-05-18T07:01:13.876Z,20.38
2023-05-18T07:02:13.037Z,20.38
2023-05-18T07:03:13.110Z,20.39
2023-05-18T07:04:13.201Z,20.40
2023-05-18T07:05:13.046Z,20.41
2023-05-18T07:06:13.016Z,20.41
2023-05-18T07:07:13.014Z,20.42
2023-05-18T07:08:13.041Z,20.42
2023-05-18T07:09:12.979Z,20.43
2023-05-18T07:10:12.980Z,20.43
2023-05-18T07:11:12.986Z,20.44
2023-05-18T07:12:13.020Z,20.45
2023-05-18T07:13:13.093Z,20.46
2023-05-18T07:14:13.126Z,20.47
2023-05-18T07:15:13.179Z,20.47
2023-05-18T07:16:13.381Z,20.48
2023-05-18T07:17:13.230Z,20.51
2023-05-18T07:18:13.267Z,20.56
2023-05-18T07:19:13.355Z,20.64
2023-05-18T07:20:13.286Z,20.68
2023-05-18T07:21:13.282Z,20.69
2023-05-18T07:22:13.294Z,20.69
2023-05-18T07:23:13.304Z,20.69
2023-05-18T07:24:13.346Z,20.69
2023-05-18T07:25:13.379Z,20.68
2023-05-18T07:26:13.359Z,20.68
2023-05-18T07:27:13.362Z,20.68
2023-05-18T07:28:13.425Z,20.67
2023-05-18T07:29:13.427Z,20.67
2023-05-18T07:30:13.471Z,20.67
2023-05-18T07:31:13.448Z,20.65
2023-05-18T07:32:13.454Z,20.64
2023-05-18T07:33:13.530Z,20.63
2023-05-18T07:34:13.495Z,20.64
2023-05-18T07:35:13.433Z,20.64
2023-05-18T07:36:13.433Z,20.64
2023-05-18T07:37:13.426Z,20.64
2023-05-18T07:38:13.401Z,20.62
2023-05-18T07:39:13.402Z,20.62
2023-05-18T07:40:13.472Z,20.62
2023-05-18T07:41:13.418Z,20.61
2023-05-18T07:42:13.406Z,20.61
2023-05-18T07:43:13.448Z,20.61
2023-05-18T07:44:13.388Z,20.60
2023-05-18T07:45:13.377Z,20.60
2023-05-18T07:46:13.479Z,20.59
2023-05-18T07:47:13.375Z,20.60
2023-05-18T07:48:13.566Z,20.60
2023-05-18T07:49:13.351Z,20.59
2023-05-18T07:50:13.358Z,20.59
2023-05-18T07:51:13.352Z,20.58
2023-05-18T07:52:13.330Z,20.59
2023-05-18T07:53:13.327Z,20.58
2023-05-18T07:54:13.328Z,20.59
2023-05-18T07:55:13.355Z,20.58
2023-05-18T07:56:13.401Z,20.59
2023-05-18T07:57:13.367Z,20.58
2023-05-18T07:58:13.405Z,20.59
2023-05-18T07:59:13.439Z,20.59
2023-05-18T08:00:13.434Z,20.58
2023-05-18T08:01:13.470Z,20.59
2023-05-18T08:02:13.524Z,20.59
2023-05-18T08:03:13.589Z,20.59
2023-05-18T08:04:13.584Z,20.59
2023-05-18T08:05:13.574Z,20.59
2023-05-18T08:06:13.577Z,20.59
2023-05-18T08:07:13.621Z,20.59
2023-05-18T08:08:13.630Z,20.59
2023-05-18T08:09:13.650Z,20.59
2023-05-18T08:10:13.702Z,20.60
2023-05-18T08:11:13.665Z,20.60
2023-05-18T08:12:13.701Z,20.60
2023-05-18T08:13:13.733Z,20.60
2023-05-18T08:14:13.844Z,20.60
2023-05-18T08:15:13.774Z,20.61
2023-05-18T08:16:13.813Z,20.62
2023-05-18T08:17:13.839Z,20.62
2023-05-18T08:18:13.838Z,20.62
2023-05-18T08:19:13.922Z,20.62
2023-05-18T08:20:13.857Z,20.63
2023-05-18T08:21:13.910Z,20.63
2023-05-18T08:22:13.895Z,20.63
2023-05-18T08:23:13.980Z,20.64
2023-05-18T08:24:13.989Z,20.64
2023-05-18T08:25:14.025Z,20.65
2023-05-18T08:26:14.910Z,20.66
2023-05-18T08:27:13.965Z,20.66
2023-05-18T08:28:13.990Z,20.67
2023-05-18T08:29:13.993Z,20.68
2023-05-18T08:30:14.010Z,20.69
2023-05-18T08:31:14.096Z,20.69
2023-05-18T08:32:14.127Z,20.70
2023-05-18T08:33:14.139Z,20.71
2023-05-18T08:34:14.073Z,20.71
2023-05-18T08:35:14.108Z,20.72
2023-05-18T08:36:14.117Z,20.73
2023-05-18T08:37:14.203Z,20.73
2023-05-18T08:38:14.142Z,20.74
2023-05-18T08:39:14.157Z,20.75
2023-05-18T08:40:14.266Z,20.76
2023-05-18T08:41:14.210Z,20.76
2023-05-18T08:42:14.224Z,20.76
2023-05-18T08:43:14.231Z,20.77
2023-05-18T08:44:14.232Z,20.78
2023-05-18T08:45:14.254Z,20.78
2023-05-18T08:46:14.297Z,20.77
2023-05-18T08:47:14.273Z,20.78
2023-05-18T08:48:14.367Z,20.78
2023-05-18T08:49:14.351Z,20.79
2023-05-18T08:50:14.333Z,20.80
2023-05-18T08:51:14.326Z,20.80
2023-05-18T08:52:14.340Z,20.81
2023-05-18T08:53:14.392Z,20.82
2023-05-18T08:54:14.334Z,20.82
2023-05-18T08:55:14.371Z,20.81
2023-05-18T08:56:14.337Z,20.82
2023-05-18T08:57:14.336Z,20.82
2023-05-18T08:58:14.320Z,20.83
2023-05-18T08:59:14.326Z,20.83
2023-05-18T09:00:14.338Z,20.85
2023-05-18T09:01:14.347Z,20.85
2023-05-18T09:02:14.294Z,20.85
2023-05-18T09:03:14.384Z,20.86
2023-05-18T09:04:14.290Z,20.87
2023-05-18T09:05:14.314Z,20.87
2023-05-18T09:06:14.247Z,20.87
2023-05-18T09:07:14.233Z,20.87
2023-05-18T09:08:14.225Z,20.88
2023-05-18T09:09:14.809Z,20.89
2023-05-18T09:10:14.267Z,20.89
2023-05-18T09:11:14.229Z,20.90
2023-05-18T09:12:14.355Z,20.91
2023-05-18T09:13:14.208Z,20.92
2023-05-18T09:14:14.195Z,20.93
2023-05-18T09:15:14.177Z,20.95
2023-05-18T09:16:14.218Z,20.96
2023-05-18T09:17:14.178Z,20.97
2023-05-18T09:18:14.215Z,21.00
2023-05-18T09:19:14.229Z,21.01
2023-05-18T09:20:14.186Z,21.03
2023-05-18T09:21:14.219Z,21.04
2023-05-18T09:22:14.119Z,21.06
2023-05-18T09:23:14.118Z,21.07
2023-05-18T09:24:14.121Z,21.08
2023-05-18T09:25:14.131Z,21.09
2023-05-18T09:26:14.122Z,21.09
2023-05-18T09:27:14.096Z,21.07
2023-05-18T09:28:14.088Z,21.07
2023-05-18T09:29:14.101Z,21.07
2023-05-18T09:30:14.172Z,21.07
2023-05-18T09:31:14.252Z,21.07
2023-05-18T09:32:14.307Z,21.08
2023-05-18T09:33:14.461Z,21.09
2023-05-18T09:34:14.405Z,21.10
2023-05-18T09:35:14.477Z,21.10
2023-05-18T09:36:14.518Z,21.13
2023-05-18T09:37:14.592Z,21.13
2023-05-18T09:38:14.655Z,21.15
2023-05-18T09:39:14.723Z,21.17
2023-05-18T09:40:14.794Z,21.20
2023-05-18T09:41:14.834Z,21.22
2023-05-18T09:42:14.874Z,21.23
2023-05-18T09:43:14.933Z,21.24
2023-05-18T09:44:15.007Z,21.25
2023-05-18T09:45:15.039Z,21.26
2023-05-18T09:46:15.194Z,21.28
2023-05-18T09:47:15.320Z,21.29
2023-05-18T09:48:15.295Z,21.30
2023-05-18T09:49:15.281Z,21.31
2023-05-18T09:50:15.374Z,21.32
2023-05-18T09:51:15.387Z,21.32
2023-05-18T09:52:15.436Z,21.34
2023-05-18T09:53:15.512Z,21.35
2023-05-18T09:54:15.587Z,21.35
2023-05-18T09:55:15.984Z,21.35
2023-05-18T09:56:15.742Z,21.35
2023-05-18T09:57:15.747Z,21.35
2023-05-18T09:58:15.777Z,21.34
2023-05-18T09:59:15.816Z,21.33
2023-05-18T10:00:15.884Z,21.34
2023-05-18T10:01:15.972Z,21.35
2023-05-18T10:02:15.997Z,21.35
2023-05-18T10:03:16.045Z,21.36
2023-05-18T10:04:16.139Z,21.37
2023-05-18T10:05:16.167Z,21.36
2023-05-18T10:06:16.171Z,21.37
2023-05-18T10:07:16.348Z,21.37
2023-05-18T10:08:16.309Z,21.34
2023-05-18T10:09:16.351Z,21.33
2023-05-18T10:10:16.412Z,21.33
2023-05-18T10:11:16.417Z,21.34
2023-05-18T10:12:16.499Z,21.36
2023-05-18T10:13:16.513Z,21.38
2023-05-18T10:14:16.591Z,21.38
2023-05-18T10:15:16.634Z,21.38
2023-05-18T10:16:16.754Z,21.39
2023-05-18T10:17:17.423Z,21.39
2023-05-18T10:18:16.852Z,21.39
2023-05-18T10:19:16.890Z,21.40
2023-05-18T10:20:16.900Z,21.40
2023-05-18T10:21:16.898Z,21.40
2023-05-18T10:22:16.959Z,21.39
2023-05-18T10:23:17.004Z,21.40
2023-05-18T10:24:17.034Z,21.42
2023-05-18T10:25:17.078Z,21.43
2023-05-18T10:26:17.172Z,21.44
2023-05-18T10:27:17.159Z,21.45
2023-05-18T10:28:17.199Z,21.45
2023-05-18T10:29:17.310Z,21.46
2023-05-18T10:30:17.299Z,21.44
2023-05-18T10:31:17.397Z,21.43
2023-05-18T10:32:17.376Z,21.42
2023-05-18T10:33:28.342Z,21.41
2023-05-18T10:34:18.441Z,21.41
2023-05-18T10:35:17.419Z,21.40
2023-05-18T10:36:17.402Z,21.41
2023-05-18T10:37:17.381Z,21.43
2023-05-18T10:38:17.371Z,21.44
2023-05-18T10:39:17.366Z,21.45
2023-05-18T10:40:17.411Z,21.46
2023-05-18T10:41:17.357Z,21.47
2023-05-18T10:42:17.342Z,21.48
2023-05-18T10:43:19.118Z,21.50
2023-05-18T10:44:17.508Z,21.50
2023-05-18T10:45:17.563Z,21.50
2023-05-18T10:46:17.657Z,21.51
2023-05-18T10:47:17.698Z,21.52
2023-05-18T10:48:17.707Z,21.53
2023-05-18T10:49:17.656Z,21.52
2023-05-18T10:50:17.737Z,21.52
2023-05-18T10:51:17.720Z,21.53
2023-05-18T10:52:17.616Z,21.54
2023-05-18T10:53:17.600Z,21.54
2023-05-18T10:54:17.638Z,21.54
2023-05-18T10:55:17.609Z,21.55
2023-05-18T10:56:17.588Z,21.55
2023-05-18T10:57:17.570Z,21.55
2023-05-18T10:58:17.583Z,21.55
2023-05-18T10:59:17.530Z,21.56
2023-05-18T11:00:17.543Z,21.57
2023-05-18T11:01:17.610Z,21.56
2023-05-18T11:02:17.633Z,21.57
2023-05-18T11:03:17.680Z,21.57
2023-05-18T11:04:17.719Z,21.58
2023-05-18T11:05:17.758Z,21.58
2023-05-18T11:06:17.764Z,21.58
2023-05-18T11:07:17.808Z,21.59
2023-05-18T11:08:17.815Z,21.59
2023-05-18T11:09:17.872Z,21.60
2023-05-18T11:10:17.974Z,21.60
2023-05-18T11:11:19.325Z,21.60
2023-05-18T11:12:17.956Z,21.61
2023-05-18T11:13:17.942Z,21.61
2023-05-18T11:14:17.940Z,21.61
2023-05-18T11:15:17.933Z,21.62
2023-05-18T11:16:17.938Z,21.62
2023-05-18T11:17:17.951Z,21.62
2023-05-18T11:18:18.060Z,21.63
2023-05-18T11:19:17.991Z,21.64
2023-05-18T11:20:17.850Z,21.64
2023-05-18T11:21:17.837Z,21.65
2023-05-18T11:22:17.811Z,21.65
2023-05-18T11:23:17.817Z,21.66
2023-05-18T11:24:17.831Z,21.65
2023-05-18T11:25:17.786Z,21.66
2023-05-18T11:26:17.753Z,21.67
2023-05-18T11:27:17.749Z,21.67
2023-05-18T11:28:17.722Z,21.69
2023-05-18T11:29:17.757Z,21.70
2023-05-18T11:30:17.796Z,21.71
2023-05-18T11:31:17.798Z,21.71
2023-05-18T11:32:20.857Z,21.72
2023-05-18T11:33:18.824Z,21.72
2023-05-18T11:34:17.767Z,21.73
2023-05-18T11:35:17.782Z,21.74
2023-05-18T11:36:17.734Z,21.74
2023-05-18T11:37:17.743Z,21.76
2023-05-18T11:38:17.735Z,21.75
2023-05-18T11:39:17.709Z,21.76
2023-05-18T11:40:17.709Z,21.77
2023-05-18T11:41:17.676Z,21.77
2023-05-18T11:42:17.659Z,21.77
2023-05-18T11:43:17.652Z,21.76
2023-05-18T11:44:17.671Z,21.76
2023-05-18T11:45:17.651Z,21.76
2023-05-18T11:46:17.593Z,21.77
2023-05-18T11:47:17.582Z,21.77
2023-05-18T11:48:17.651Z,21.79
2023-05-18T11:49:17.561Z,21.81
2023-05-18T11:50:17.553Z,21.83
2023-05-18T11:51:17.525Z,21.83
2023-05-18T11:52:17.511Z,21.83
2023-05-18T11:53:17.530Z,21.83
2023-05-18T11:54:17.488Z,21.83
2023-05-18T11:55:17.473Z,21.83
2023-05-18T11:56:17.458Z,21.83
2023-05-18T11:57:18.506Z,21.85
2023-05-18T11:58:17.423Z,21.84
2023-05-18T11:59:17.409Z,21.84
2023-05-18T12:00:17.403Z,21.84
2023-05-18T12:01:17.408Z,21.84
2023-05-18T12:02:17.399Z,21.83
2023-05-18T12:03:17.443Z,21.83
2023-05-18T12:04:17.551Z,21.83
2023-05-18T12:05:17.376Z,21.82
2023-05-18T12:06:17.339Z,21.82
2023-05-18T12:07:17.358Z,21.83
2023-05-18T12:08:17.369Z,21.83
2023-05-18T12:09:17.344Z,21.82
2023-05-18T12:10:17.442Z,21.82
2023-05-18T12:11:17.349Z,21.82
2023-05-18T12:12:17.346Z,21.82
2023-05-18T12:13:17.348Z,21.82
2023-05-18T12:14:17.324Z,21.82
2023-05-18T12:15:17.628Z,21.81
2023-05-18T12:16:17.365Z,21.81
2023-05-18T12:17:17.339Z,21.81
2023-05-18T12:18:17.388Z,21.81
2023-05-18T12:19:17.416Z,21.81
2023-05-18T12:20:17.427Z,21.81
2023-05-18T12:21:17.359Z,21.82
2023-05-18T12:22:17.404Z,21.82
2023-05-18T12:23:17.401Z,21.82
2023-05-18T12:24:17.392Z,21.81
2023-05-18T12:25:17.499Z,21.80
2023-05-18T12:26:17.433Z,21.79
2023-05-18T12:27:17.449Z,21.78
2023-05-18T12:28:17.444Z,21.78
2023-05-18T12:29:17.471Z,21.78
2023-05-18T12:30:17.494Z,21.77
2023-05-18T12:31:17.537Z,21.77
2023-05-18T12:32:17.499Z,21.77
2023-05-18T12:33:17.559Z,21.77
2023-05-18T12:34:17.595Z,21.77
2023-05-18T12:35:17.516Z,21.76
2023-05-18T12:36:17.520Z,21.77
2023-05-18T12:37:17.636Z,21.76
2023-05-18T12:38:17.549Z,21.76
2023-05-18T12:39:17.550Z,21.77
2023-05-18T12:40:17.576Z,21.77
2023-05-18T12:41:17.561Z,21.78
2023-05-18T12:42:17.566Z,21.77
2023-05-18T12:43:17.737Z,21.77
2023-05-18T12:44:17.574Z,21.77
2023-05-18T12:45:17.605Z,21.77
2023-05-18T12:46:18.057Z,21.77
2023-05-18T12:47:17.616Z,21.76
2023-05-18T12:48:17.684Z,21.76
2023-05-18T12:49:17.679Z,21.76
2023-05-18T12:50:17.650Z,21.76
2023-05-18T12:51:17.648Z,21.77
2023-05-18T12:52:17.691Z,21.77
2023-05-18T12:53:17.693Z,21.76